sensor_id;sensor_type;location;lat;lon;timestamp;pressure;altitude;pressure_sealevel;temperature;humidity
63808;BME280;49961;43.970;22.868;2022-12-18T00:00:59;102415.88;;;4.96;100.00
63808;BME280;49961;43.970;22.868;2022-12-18T00:02:00;102533.59;;;5.65;100.00
63808;BME280;49961;43.970;22.868;2022-12-18T00:03:00;102533.75;;;5.56;100.00
63808;BME280;49961;43.970;22.868;2022-12-18T00:04:05;102526.38;;;5.60;100.00
63808;BME280;49961;43.970;22.868;2022-12-18T00:05:06;102531.63;;;5.65;100.00
63808;BME280;49961;43.970;22.868;2022-12-18T00:06:08;102527.03;;;5.54;100.00
63808;BME280;49961;43.970;22.868;2022-12-18T00:07:09;102536.13;;;5.58;100.00
63808;BME280;49961;43.970;22.868;2022-12-18T00:08:09;102538.09;;;5.57;100.00
63808;BME280;49961;43.970;22.868;2022-12-18T00:09:10;102498.69;;;5.38;100.00
63808;BME280;49961;43.970;22.868;2022-12-18T00:10:10;102542.03;;;5.72;100.00
63808;BME280;49961;43.970;22.868;2022-12-18T00:11:16;102540.78;;;5.69;100.00
63808;BME280;49961;43.970;22.868;2022-12-18T00:12:16;102543.34;;;5.62;100.00
63808;BME280;49961;43.970;22.868;2022-12-18T00:13:17;102542.09;;;5.60;100.00
63808;BME280;49961;43.970;22.868;2022-12-18T00:14:17;102548.56;;;5.52;100.00
63808;BME280;49961;43.970;22.868;2022-12-18T00:15:18;102543.78;;;5.49;100.00
63808;BME280;49961;43.970;22.868;2022-12-18T00:16:21;102543.06;;;5.52;100.00
63808;BME280;49961;43.970;22.868;2022-12-18T00:17:21;102543.06;;;5.52;100.00
63808;BME280;49961;43.970;22.868;2022-12-18T00:18:22;102548.94;;;5.50;100.00
63808;BME280;49961;43.970;22.868;2022-12-18T00:19:22;102549.88;;;5.58;100.00
63808;BME280;49961;43.970;22.868;2022-12-18T00:20:23;102549.19;;;5.61;100.00
63808;BME280;49961;43.970;22.868;2022-12-18T00:21:27;102553.19;;;5.63;100.00
63808;BME280;49961;43.970;22.868;2022-12-18T00:22:28;102553.53;;;5.62;100.00
63808;BME280;49961;43.970;22.868;2022-12-18T00:23:29;102569.34;;;5.65;100.00
63808;BME280;49961;43.970;22.868;2022-12-18T00:24:30;102564.84;;;5.72;100.00
63808;BME280;49961;43.970;22.868;2022-12-18T00:25:33;102555.69;;;5.68;100.00
63808;BME280;49961;43.970;22.868;2022-12-18T00:26:36;102491.81;;;5.32;100.00
63808;BME280;49961;43.970;22.868;2022-12-18T00:27:37;102544.88;;;5.75;100.00
63808;BME280;49961;43.970;22.868;2022-12-18T00:28:38;102493.06;;;5.34;100.00
63808;BME280;49961;43.970;22.868;2022-12-18T00:29:41;102562.63;;;5.78;100.00
63808;BME280;49961;43.970;22.868;2022-12-18T00:30:41;102553.38;;;5.70;100.00
63808;BME280;49961;43.970;22.868;2022-12-18T00:31:42;102548.13;;;5.65;100.00
63808;BME280;49961;43.970;22.868;2022-12-18T00:32:42;102567.09;;;5.82;100.00
63808;BME280;49961;43.970;22.868;2022-12-18T00:33:43;102572.97;;;5.81;100.00
63808;BME280;49961;43.970;22.868;2022-12-18T00:34:43;102580.53;;;5.84;100.00
63808;BME280;49961;43.970;22.868;2022-12-18T00:35:44;102576.28;;;5.74;100.00
63808;BME280;49961;43.970;22.868;2022-12-18T00:36:47;102556.81;;;5.52;100.00
63808;BME280;49961;43.970;22.868;2022-12-18T00:37:48;102579.63;;;5.68;100.00
63808;BME280;49961;43.970;22.868;2022-12-18T00:38:48;102615.28;;;5.49;100.00
63808;BME280;49961;43.970;22.868;2022-12-18T00:39:49;102595.22;;;5.48;100.00
63808;BME280;49961;43.970;22.868;2022-12-18T00:40:49;102592.03;;;5.46;100.00
63808;BME280;49961;43.970;22.868;2022-12-18T00:41:50;102596.88;;;5.37;100.00
63808;BME280;49961;43.970;22.868;2022-12-18T00:43:09;102595.13;;;5.45;100.00
63808;BME280;49961;43.970;22.868;2022-12-18T00:44:12;102604.28;;;5.49;100.00
63808;BME280;49961;43.970;22.868;2022-12-18T00:45:13;102503.44;;;4.70;100.00
63808;BME280;49961;43.970;22.868;2022-12-18T00:46:13;102513.97;;;4.68;100.00
63808;BME280;49961;43.970;22.868;2022-12-18T00:47:13;102606.75;;;5.26;100.00
63808;BME280;49961;43.970;22.868;2022-12-18T00:48:14;102610.78;;;5.17;100.00
63808;BME280;49961;43.970;22.868;2022-12-18T00:49:16;102619.16;;;5.08;100.00
63808;BME280;49961;43.970;22.868;2022-12-18T00:50:18;102600.78;;;4.97;100.00
63808;BME280;49961;43.970;22.868;2022-12-18T00:51:18;102508.41;;;4.41;100.00
63808;BME280;49961;43.970;22.868;2022-12-18T00:52:19;102613.81;;;5.12;100.00
63808;BME280;49961;43.970;22.868;2022-12-18T00:53:20;102551.69;;;4.83;100.00
63808;BME280;49961;43.970;22.868;2022-12-18T00:54:20;102534.19;;;4.76;100.00
63808;BME280;49961;43.970;22.868;2022-12-18T00:55:21;102615.09;;;5.30;100.00
63808;BME280;49961;43.970;22.868;2022-12-18T00:56:21;102604.09;;;5.30;100.00
63808;BME280;49961;43.970;22.868;2022-12-18T00:57:22;102611.63;;;5.45;100.00
63808;BME280;49961;43.970;22.868;2022-12-18T00:58:22;102612.53;;;5.49;100.00
63808;BME280;49961;43.970;22.868;2022-12-18T00:59:22;102587.38;;;5.35;100.00
63808;BME280;49961;43.970;22.868;2022-12-18T01:00:23;102612.38;;;5.57;100.00
63808;BME280;49961;43.970;22.868;2022-12-18T01:01:23;102610.22;;;5.51;100.00
63808;BME280;49961;43.970;22.868;2022-12-18T01:02:24;102503.47;;;4.86;100.00
63808;BME280;49961;43.970;22.868;2022-12-18T01:03:24;102562.44;;;5.28;100.00
63808;BME280;49961;43.970;22.868;2022-12-18T01:04:25;102600.03;;;5.51;100.00
63808;BME280;49961;43.970;22.868;2022-12-18T01:05:26;102619.56;;;5.62;100.00
63808;BME280;49961;43.970;22.868;2022-12-18T01:06:26;102614.06;;;5.62;100.00
63808;BME280;49961;43.970;22.868;2022-12-18T01:07:27;102617.81;;;5.69;100.00
63808;BME280;49961;43.970;22.868;2022-12-18T01:08:27;102623.41;;;5.73;100.00
63808;BME280;49961;43.970;22.868;2022-12-18T01:09:28;102621.03;;;5.71;100.00
63808;BME280;49961;43.970;22.868;2022-12-18T01:10:28;102616.22;;;5.68;100.00
63808;BME280;49961;43.970;22.868;2022-12-18T01:11:29;102624.38;;;5.65;100.00
63808;BME280;49961;43.970;22.868;2022-12-18T01:12:30;102609.16;;;5.55;100.00
63808;BME280;49961;43.970;22.868;2022-12-18T01:13:30;102627.47;;;5.63;100.00
63808;BME280;49961;43.970;22.868;2022-12-18T01:14:30;102598.53;;;5.54;100.00
63808;BME280;49961;43.970;22.868;2022-12-18T01:15:31;102615.97;;;5.73;100.00
63808;BME280;49961;43.970;22.868;2022-12-18T01:16:31;102604.59;;;5.75;100.00
63808;BME280;49961;43.970;22.868;2022-12-18T01:17:33;102608.94;;;5.76;100.00
63808;BME280;49961;43.970;22.868;2022-12-18T01:18:33;102605.84;;;5.77;100.00
63808;BME280;49961;43.970;22.868;2022-12-18T01:19:34;102614.22;;;5.81;100.00
63808;BME280;49961;43.970;22.868;2022-12-18T01:20:34;102601.63;;;5.80;100.00
63808;BME280;49961;43.970;22.868;2022-12-18T01:21:35;102598.97;;;5.83;100.00
63808;BME280;49961;43.970;22.868;2022-12-18T01:22:36;102603.06;;;5.89;100.00
63808;BME280;49961;43.970;22.868;2022-12-18T01:23:37;102607.88;;;5.92;100.00
63808;BME280;49961;43.970;22.868;2022-12-18T01:24:38;102588.59;;;5.92;100.00
63808;BME280;49961;43.970;22.868;2022-12-18T01:25:38;102592.84;;;6.05;100.00
63808;BME280;49961;43.970;22.868;2022-12-18T01:26:38;102608.94;;;6.03;100.00
63808;BME280;49961;43.970;22.868;2022-12-18T01:27:39;102590.03;;;5.86;100.00
63808;BME280;49961;43.970;22.868;2022-12-18T01:28:39;102599.41;;;5.85;100.00
63808;BME280;49961;43.970;22.868;2022-12-18T01:29:40;102600.22;;;5.86;100.00
63808;BME280;49961;43.970;22.868;2022-12-18T01:30:40;102590.72;;;5.83;100.00
63808;BME280;49961;43.970;22.868;2022-12-18T01:31:41;102599.16;;;5.90;100.00
63808;BME280;49961;43.970;22.868;2022-12-18T01:32:41;102596.78;;;5.89;100.00
63808;BME280;49961;43.970;22.868;2022-12-18T01:33:42;102595.97;;;5.88;100.00
63808;BME280;49961;43.970;22.868;2022-12-18T01:34:43;102617.19;;;6.03;100.00
63808;BME280;49961;43.970;22.868;2022-12-18T01:35:43;102620.94;;;6.11;100.00
63808;BME280;49961;43.970;22.868;2022-12-18T01:36:44;102612.69;;;6.11;100.00
63808;BME280;49961;43.970;22.868;2022-12-18T01:37:44;102611.78;;;6.07;100.00
63808;BME280;49961;43.970;22.868;2022-12-18T01:38:45;102608.59;;;6.05;100.00
63808;BME280;49961;43.970;22.868;2022-12-18T01:39:46;102611.44;;;6.08;100.00
63808;BME280;49961;43.970;22.868;2022-12-18T01:40:46;102618.09;;;6.07;100.00
63808;BME280;49961;43.970;22.868;2022-12-18T01:41:47;102618.44;;;6.06;100.00
63808;BME280;49961;43.970;22.868;2022-12-18T01:43:02;102619.69;;;6.08;100.00
63808;BME280;49961;43.970;22.868;2022-12-18T01:45:42;102622.09;;;6.10;100.00
63808;BME280;49961;43.970;22.868;2022-12-18T01:46:42;102626.63;;;6.02;100.00
63808;BME280;49961;43.970;22.868;2022-12-18T01:47:51;102629.00;;;6.04;100.00
63808;BME280;49961;43.970;22.868;2022-12-18T01:48:57;102561.78;;;5.62;100.00
63808;BME280;49961;43.970;22.868;2022-12-18T01:50:00;102634.50;;;6.04;100.00
63808;BME280;49961;43.970;22.868;2022-12-18T01:51:02;102574.38;;;5.63;100.00
63808;BME280;49961;43.970;22.868;2022-12-18T01:52:02;102617.16;;;5.88;100.00
63808;BME280;49961;43.970;22.868;2022-12-18T01:53:10;102641.97;;;6.03;100.00
63808;BME280;49961;43.970;22.868;2022-12-18T01:54:11;102636.38;;;6.00;100.00
63808;BME280;49961;43.970;22.868;2022-12-18T01:55:14;102613.06;;;5.82;100.00
63808;BME280;49961;43.970;22.868;2022-12-18T01:56:18;102655.19;;;5.98;100.00
63808;BME280;49961;43.970;22.868;2022-12-18T01:57:19;102638.31;;;5.99;100.00
63808;BME280;49961;43.970;22.868;2022-12-18T01:58:24;102643.28;;;5.94;100.00
63808;BME280;49961;43.970;22.868;2022-12-18T01:59:30;102643.72;;;5.96;100.00
63808;BME280;49961;43.970;22.868;2022-12-18T02:00:32;102648.69;;;5.90;100.00
63808;BME280;49961;43.970;22.868;2022-12-18T02:01:34;102643.09;;;5.87;100.00
63808;BME280;49961;43.970;22.868;2022-12-18T02:02:35;102654.34;;;5.82;100.00
63808;BME280;49961;43.970;22.868;2022-12-18T02:03:35;102659.16;;;5.85;100.00
63808;BME280;49961;43.970;22.868;2022-12-18T02:04:36;102647.13;;;5.77;100.00
63808;BME280;49961;43.970;22.868;2022-12-18T02:05:46;102650.09;;;5.84;100.00
63808;BME280;49961;43.970;22.868;2022-12-18T02:07:00;102652.84;;;5.84;100.00
63808;BME280;49961;43.970;22.868;2022-12-18T02:08:18;102665.09;;;5.87;100.00
63808;BME280;49961;43.970;22.868;2022-12-18T02:09:25;102660.84;;;5.89;100.00
63808;BME280;49961;43.970;22.868;2022-12-18T02:10:48;102664.19;;;5.83;100.00
63808;BME280;49961;43.970;22.868;2022-12-18T02:14:38;102662.00;;;5.88;100.00
63808;BME280;49961;43.970;22.868;2022-12-18T02:17:04;102670.25;;;5.88;100.00
63808;BME280;49961;43.970;22.868;2022-12-18T02:22:15;102658.81;;;6.02;100.00
63808;BME280;49961;43.970;22.868;2022-12-18T02:26:26;102655.91;;;5.95;100.00
63808;BME280;49961;43.970;22.868;2022-12-18T02:27:30;102650.75;;;5.93;100.00
63808;BME280;49961;43.970;22.868;2022-12-18T02:28:35;102657.59;;;5.99;100.00
63808;BME280;49961;43.970;22.868;2022-12-18T02:29:51;102568.22;;;5.38;100.00
63808;BME280;49961;43.970;22.868;2022-12-18T02:30:53;102665.03;;;5.99;100.00
63808;BME280;49961;43.970;22.868;2022-12-18T02:32:00;102603.06;;;5.62;100.00
63808;BME280;49961;43.970;22.868;2022-12-18T02:33:04;102653.66;;;5.85;100.00
63808;BME280;49961;43.970;22.868;2022-12-18T02:34:08;102652.69;;;5.93;100.00
63808;BME280;49961;43.970;22.868;2022-12-18T02:35:13;102664.41;;;5.90;100.00
63808;BME280;49961;43.970;22.868;2022-12-18T02:36:16;102608.91;;;5.60;100.00
63808;BME280;49961;43.970;22.868;2022-12-18T02:37:19;102666.69;;;5.88;100.00
63808;BME280;49961;43.970;22.868;2022-12-18T02:38:21;102578.88;;;5.40;100.00
63808;BME280;49961;43.970;22.868;2022-12-18T02:39:25;102616.19;;;5.53;100.00
63808;BME280;49961;43.970;22.868;2022-12-18T02:40:27;102677.59;;;5.84;100.00
63808;BME280;49961;43.970;22.868;2022-12-18T02:41:29;102672.22;;;5.76;100.00
63808;BME280;49961;43.970;22.868;2022-12-18T02:42:31;102659.97;;;5.73;100.00
63808;BME280;49961;43.970;22.868;2022-12-18T02:43:32;102670.28;;;5.76;100.00
63808;BME280;49961;43.970;22.868;2022-12-18T02:44:44;102617.63;;;5.35;100.00
63808;BME280;49961;43.970;22.868;2022-12-18T02:45:52;102669.81;;;5.74;100.00
63808;BME280;49961;43.970;22.868;2022-12-18T02:46:53;102677.97;;;5.71;100.00
63808;BME280;49961;43.970;22.868;2022-12-18T02:47:54;102677.28;;;5.74;100.00
63808;BME280;49961;43.970;22.868;2022-12-18T02:49:01;102674.56;;;5.62;100.00
63808;BME280;49961;43.970;22.868;2022-12-18T02:50:13;102670.28;;;5.49;100.00
63808;BME280;49961;43.970;22.868;2022-12-18T02:51:29;102668.34;;;5.37;100.00
63808;BME280;49961;43.970;22.868;2022-12-18T02:52:53;102676.25;;;5.39;100.00
63808;BME280;49961;43.970;22.868;2022-12-18T02:54:20;102685.53;;;5.34;100.00
63808;BME280;49961;43.970;22.868;2022-12-18T02:56:46;102648.13;;;5.18;100.00
63808;BME280;49961;43.970;22.868;2022-12-18T02:57:55;102568.44;;;4.66;100.00
63808;BME280;49961;43.970;22.868;2022-12-18T02:59:01;102694.94;;;5.45;100.00
63808;BME280;49961;43.970;22.868;2022-12-18T03:00:13;102692.41;;;5.40;100.00
63808;BME280;49961;43.970;22.868;2022-12-18T03:01:38;102696.06;;;5.44;100.00
63808;BME280;49961;43.970;22.868;2022-12-18T03:02:54;102696.28;;;5.51;100.00
63808;BME280;49961;43.970;22.868;2022-12-18T03:04:03;102695.81;;;5.49;100.00
63808;BME280;49961;43.970;22.868;2022-12-18T03:05:17;102693.53;;;5.39;100.00
63808;BME280;49961;43.970;22.868;2022-12-18T03:06:40;102702.25;;;5.41;100.00
63808;BME280;49961;43.970;22.868;2022-12-18T03:08:22;102707.88;;;5.45;100.00
63808;BME280;49961;43.970;22.868;2022-12-18T03:09:42;102702.47;;;5.48;100.00
63808;BME280;49961;43.970;22.868;2022-12-18T03:10:53;102712.91;;;5.43;100.00
63808;BME280;49961;43.970;22.868;2022-12-18T03:12:02;102647.25;;;4.90;100.00
63808;BME280;49961;43.970;22.868;2022-12-18T03:13:43;102714.19;;;5.33;100.00
63808;BME280;49961;43.970;22.868;2022-12-18T03:14:45;102705.50;;;5.07;100.00
63808;BME280;49961;43.970;22.868;2022-12-18T03:15:50;102729.88;;;5.21;100.00
63808;BME280;49961;43.970;22.868;2022-12-18T03:16:54;102725.41;;;5.28;100.00
63808;BME280;49961;43.970;22.868;2022-12-18T03:18:02;102710.44;;;5.14;100.00
63808;BME280;49961;43.970;22.868;2022-12-18T03:19:09;102730.38;;;5.23;100.00
63808;BME280;49961;43.970;22.868;2022-12-18T03:20:17;102735.88;;;5.23;100.00
63808;BME280;49961;43.970;22.868;2022-12-18T03:21:24;102729.09;;;5.20;100.00
63808;BME280;49961;43.970;22.868;2022-12-18T03:22:30;102727.94;;;5.21;100.00
63808;BME280;49961;43.970;22.868;2022-12-18T03:23:36;102733.44;;;5.21;100.00
63808;BME280;49961;43.970;22.868;2022-12-18T03:24:39;102629.88;;;4.62;100.00
63808;BME280;49961;43.970;22.868;2022-12-18T03:25:42;102738.38;;;5.28;100.00
63808;BME280;49961;43.970;22.868;2022-12-18T03:26:47;102726.00;;;5.22;100.00
63808;BME280;49961;43.970;22.868;2022-12-18T03:27:51;102740.09;;;5.32;100.00
63808;BME280;49961;43.970;22.868;2022-12-18T03:29:06;102736.50;;;5.32;100.00
63808;BME280;49961;43.970;22.868;2022-12-18T03:30:10;102739.25;;;5.32;100.00
63808;BME280;49961;43.970;22.868;2022-12-18T03:31:14;102741.13;;;5.28;100.00
63808;BME280;49961;43.970;22.868;2022-12-18T03:32:28;102744.31;;;5.30;100.00
63808;BME280;49961;43.970;22.868;2022-12-18T03:33:53;102746.94;;;5.38;100.00
63808;BME280;49961;43.970;22.868;2022-12-18T03:34:58;102735.03;;;5.46;100.00
63808;BME280;49961;43.970;22.868;2022-12-18T03:36:01;102666.13;;;5.03;100.00
63808;BME280;49961;43.970;22.868;2022-12-18T03:37:02;102747.38;;;5.52;100.00
63808;BME280;49961;43.970;22.868;2022-12-18T03:38:02;102743.56;;;5.57;100.00
63808;BME280;49961;43.970;22.868;2022-12-18T03:39:03;102747.38;;;5.52;100.00
63808;BME280;49961;43.970;22.868;2022-12-18T03:40:04;102742.69;;;5.53;100.00
63808;BME280;49961;43.970;22.868;2022-12-18T03:43:54;102705.72;;;5.26;100.00
63808;BME280;49961;43.970;22.868;2022-12-18T03:45:09;102738.44;;;5.43;100.00
63808;BME280;49961;43.970;22.868;2022-12-18T03:46:17;102746.50;;;5.36;100.00
63808;BME280;49961;43.970;22.868;2022-12-18T03:47:27;102750.28;;;5.44;100.00
63808;BME280;49961;43.970;22.868;2022-12-18T03:48:44;102747.63;;;5.47;100.00
63808;BME280;49961;43.970;22.868;2022-12-18T03:50:16;102748.53;;;5.51;100.00
63808;BME280;49961;43.970;22.868;2022-12-18T03:51:28;102750.16;;;5.40;100.00
63808;BME280;49961;43.970;22.868;2022-12-18T03:52:41;102680.34;;;5.05;100.00
63808;BME280;49961;43.970;22.868;2022-12-18T03:53:53;102762.88;;;5.45;100.00
63808;BME280;49961;43.970;22.868;2022-12-18T03:54:58;102766.66;;;5.40;100.00
63808;BME280;49961;43.970;22.868;2022-12-18T03:56:00;102765.16;;;5.43;100.00
63808;BME280;49961;43.970;22.868;2022-12-18T03:57:09;102762.66;;;5.38;100.00
63808;BME280;49961;43.970;22.868;2022-12-18T03:58:13;102761.50;;;5.27;100.00
63808;BME280;49961;43.970;22.868;2022-12-18T03:59:17;102774.22;;;5.31;100.00
63808;BME280;49961;43.970;22.868;2022-12-18T04:00:19;102770.09;;;5.37;100.00
63808;BME280;49961;43.970;22.868;2022-12-18T04:01:23;102773.66;;;5.38;100.00
63808;BME280;49961;43.970;22.868;2022-12-18T04:02:26;102773.75;;;5.41;100.00
63808;BME280;49961;43.970;22.868;2022-12-18T04:03:28;102724.53;;;5.12;100.00
63808;BME280;49961;43.970;22.868;2022-12-18T04:04:30;102773.41;;;5.31;100.00
63808;BME280;49961;43.970;22.868;2022-12-18T04:05:32;102771.59;;;5.23;100.00
63808;BME280;49961;43.970;22.868;2022-12-18T04:06:35;102761.97;;;5.29;100.00
63808;BME280;49961;43.970;22.868;2022-12-18T04:07:36;102778.69;;;5.36;100.00
63808;BME280;49961;43.970;22.868;2022-12-18T04:08:39;102775.00;;;5.32;100.00
63808;BME280;49961;43.970;22.868;2022-12-18T04:09:41;102780.97;;;5.34;100.00
63808;BME280;49961;43.970;22.868;2022-12-18T04:10:42;102780.41;;;5.40;100.00
63808;BME280;49961;43.970;22.868;2022-12-18T04:11:43;102785.91;;;5.28;100.00
63808;BME280;49961;43.970;22.868;2022-12-18T04:12:44;102772.63;;;5.18;100.00
63808;BME280;49961;43.970;22.868;2022-12-18T04:13:44;102761.84;;;5.01;100.00
63808;BME280;49961;43.970;22.868;2022-12-18T04:14:45;102779.16;;;5.02;100.00
63808;BME280;49961;43.970;22.868;2022-12-18T04:15:45;102777.44;;;5.09;100.00
63808;BME280;49961;43.970;22.868;2022-12-18T04:16:46;102781.22;;;5.05;100.00
63808;BME280;49961;43.970;22.868;2022-12-18T04:17:48;102774.34;;;4.99;100.00
63808;BME280;49961;43.970;22.868;2022-12-18T04:18:49;102720.69;;;4.45;100.00
63808;BME280;49961;43.970;22.868;2022-12-18T04:19:50;102782.59;;;4.87;100.00
63808;BME280;49961;43.970;22.868;2022-12-18T04:20:50;102776.94;;;4.83;100.00
63808;BME280;49961;43.970;22.868;2022-12-18T04:21:51;102779.84;;;4.87;100.00
63808;BME280;49961;43.970;22.868;2022-12-18T04:22:51;102758.63;;;4.75;100.00
63808;BME280;49961;43.970;22.868;2022-12-18T04:23:51;102775.13;;;4.87;100.00
63808;BME280;49961;43.970;22.868;2022-12-18T04:24:52;102769.16;;;4.73;100.00
63808;BME280;49961;43.970;22.868;2022-12-18T04:25:52;102780.50;;;4.72;100.00
63808;BME280;49961;43.970;22.868;2022-12-18T04:26:54;102703.50;;;4.24;100.00
63808;BME280;49961;43.970;22.868;2022-12-18T04:27:54;102780.28;;;4.77;100.00
63808;BME280;49961;43.970;22.868;2022-12-18T04:28:54;102788.13;;;4.66;100.00
63808;BME280;49961;43.970;22.868;2022-12-18T04:29:55;102782.53;;;4.63;100.00
63808;BME280;49961;43.970;22.868;2022-12-18T04:30:58;102791.00;;;4.58;100.00
63808;BME280;49961;43.970;22.868;2022-12-18T04:31:58;102787.78;;;4.56;100.00
63808;BME280;49961;43.970;22.868;2022-12-18T04:32:59;102681.78;;;3.86;100.00
63808;BME280;49961;43.970;22.868;2022-12-18T04:33:59;102774.75;;;4.32;100.00
63808;BME280;49961;43.970;22.868;2022-12-18T04:35:00;102792.09;;;4.45;100.00
63808;BME280;49961;43.970;22.868;2022-12-18T04:36:00;102789.44;;;4.36;100.00
63808;BME280;49961;43.970;22.868;2022-12-18T04:37:01;102795.63;;;4.33;100.00
63808;BME280;49961;43.970;22.868;2022-12-18T04:38:01;102766.41;;;4.29;100.00
63808;BME280;49961;43.970;22.868;2022-12-18T04:39:02;102795.88;;;4.52;100.00
63808;BME280;49961;43.970;22.868;2022-12-18T04:40:02;102797.75;;;4.60;100.00
63808;BME280;49961;43.970;22.868;2022-12-18T04:41:03;102796.72;;;4.65;100.00
63808;BME280;49961;43.970;22.868;2022-12-18T04:42:04;102779.06;;;4.54;100.00
63808;BME280;49961;43.970;22.868;2022-12-18T04:43:04;102795.72;;;4.69;100.00
63808;BME280;49961;43.970;22.868;2022-12-18T04:44:05;102725.34;;;4.20;100.00
63808;BME280;49961;43.970;22.868;2022-12-18T04:45:06;102806.03;;;4.84;100.00
63808;BME280;49961;43.970;22.868;2022-12-18T04:46:08;102808.78;;;4.84;100.00
63808;BME280;49961;43.970;22.868;2022-12-18T04:47:08;102806.59;;;4.90;100.00
63808;BME280;49961;43.970;22.868;2022-12-18T04:48:09;102802.47;;;4.84;100.00
63808;BME280;49961;43.970;22.868;2022-12-18T04:49:09;102808.56;;;4.89;100.00
63808;BME280;49961;43.970;22.868;2022-12-18T04:50:10;102806.72;;;4.93;100.00
63808;BME280;49961;43.970;22.868;2022-12-18T04:51:11;102807.31;;;4.87;100.00
63808;BME280;49961;43.970;22.868;2022-12-18T04:52:12;102811.53;;;4.84;100.00
63808;BME280;49961;43.970;22.868;2022-12-18T04:53:12;102808.88;;;4.76;100.00
63808;BME280;49961;43.970;22.868;2022-12-18T04:54:13;102803.38;;;4.76;100.00
63808;BME280;49961;43.970;22.868;2022-12-18T04:55:13;102795.13;;;4.64;100.00
63808;BME280;49961;43.970;22.868;2022-12-18T04:56:15;102816.00;;;4.77;100.00
63808;BME280;49961;43.970;22.868;2022-12-18T04:57:15;102792.03;;;4.65;100.00
63808;BME280;49961;43.970;22.868;2022-12-18T04:58:16;102818.97;;;4.84;100.00
63808;BME280;49961;43.970;22.868;2022-12-18T04:59:16;102817.03;;;4.84;100.00
63808;BME280;49961;43.970;22.868;2022-12-18T05:00:17;102691.91;;;4.06;100.00
63808;BME280;49961;43.970;22.868;2022-12-18T05:01:18;102817.16;;;4.88;100.00
63808;BME280;49961;43.970;22.868;2022-12-18T05:02:18;102816.31;;;4.75;100.00
63808;BME280;49961;43.970;22.868;2022-12-18T05:03:19;102828.03;;;4.84;100.00
63808;BME280;49961;43.970;22.868;2022-12-18T05:04:19;102836.38;;;4.88;100.00
63808;BME280;49961;43.970;22.868;2022-12-18T05:05:19;102838.66;;;4.86;100.00
63808;BME280;49961;43.970;22.868;2022-12-18T05:06:20;102846.00;;;4.94;100.00
63808;BME280;49961;43.970;22.868;2022-12-18T05:07:20;102803.59;;;4.71;100.00
63808;BME280;49961;43.970;22.868;2022-12-18T05:08:21;102848.31;;;4.92;100.00
63808;BME280;49961;43.970;22.868;2022-12-18T05:09:22;102849.09;;;4.92;100.00
63808;BME280;49961;43.970;22.868;2022-12-18T05:10:22;102838.78;;;4.89;100.00
63808;BME280;49961;43.970;22.868;2022-12-18T05:11:23;102844.28;;;4.89;100.00
63808;BME280;49961;43.970;22.868;2022-12-18T05:12:23;102805.22;;;4.72;100.00
63808;BME280;49961;43.970;22.868;2022-12-18T05:13:24;102854.47;;;4.89;100.00
63808;BME280;49961;43.970;22.868;2022-12-18T05:14:24;102845.78;;;4.87;100.00
63808;BME280;49961;43.970;22.868;2022-12-18T05:15:29;102702.88;;;4.06;100.00
63808;BME280;49961;43.970;22.868;2022-12-18T05:16:30;102827.81;;;4.89;100.00
63808;BME280;49961;43.970;22.868;2022-12-18T05:17:30;102850.47;;;4.98;100.00
63808;BME280;49961;43.970;22.868;2022-12-18T05:18:31;102849.56;;;4.94;100.00
63808;BME280;49961;43.970;22.868;2022-12-18T05:19:31;102851.06;;;4.92;100.00
63808;BME280;49961;43.970;22.868;2022-12-18T05:20:32;102844.28;;;4.89;100.00
63808;BME280;49961;43.970;22.868;2022-12-18T05:21:32;102811.75;;;4.79;100.00
63808;BME280;49961;43.970;22.868;2022-12-18T05:22:32;102852.22;;;5.03;100.00
63808;BME280;49961;43.970;22.868;2022-12-18T05:23:36;102839.84;;;4.97;100.00
63808;BME280;49961;43.970;22.868;2022-12-18T05:24:36;102852.44;;;5.10;100.00
63808;BME280;49961;43.970;22.868;2022-12-18T05:25:37;102838.81;;;5.01;100.00
63808;BME280;49961;43.970;22.868;2022-12-18T05:26:37;102740.13;;;4.40;100.00
63808;BME280;49961;43.970;22.868;2022-12-18T05:27:38;102858.06;;;5.13;100.00
63808;BME280;49961;43.970;22.868;2022-12-18T05:28:38;102856.00;;;5.10;100.00
63808;BME280;49961;43.970;22.868;2022-12-18T05:29:39;102859.53;;;5.11;100.00
63808;BME280;49961;43.970;22.868;2022-12-18T05:30:51;102756.31;;;4.53;100.00
63808;BME280;49961;43.970;22.868;2022-12-18T05:31:51;102844.09;;;5.06;100.00
63808;BME280;49961;43.970;22.868;2022-12-18T05:32:52;102873.16;;;5.19;100.00
63808;BME280;49961;43.970;22.868;2022-12-18T05:33:52;102874.91;;;5.24;100.00
63808;BME280;49961;43.970;22.868;2022-12-18T05:34:52;102874.34;;;5.30;100.00
63808;BME280;49961;43.970;22.868;2022-12-18T05:35:55;102872.06;;;5.32;100.00
63808;BME280;49961;43.970;22.868;2022-12-18T05:36:56;102872.16;;;5.36;100.00
63808;BME280;49961;43.970;22.868;2022-12-18T05:37:56;102872.66;;;5.38;100.00
63808;BME280;49961;43.970;22.868;2022-12-18T05:38:56;102833.56;;;5.20;100.00
63808;BME280;49961;43.970;22.868;2022-12-18T05:39:57;102869.91;;;5.38;100.00
63808;BME280;49961;43.970;22.868;2022-12-18T05:40:57;102871.59;;;5.30;100.00
63808;BME280;49961;43.970;22.868;2022-12-18T05:41:58;102875.94;;;5.31;100.00
63808;BME280;49961;43.970;22.868;2022-12-18T05:42:58;102769.25;;;4.65;100.00
63808;BME280;49961;43.970;22.868;2022-12-18T05:43:59;102861.06;;;5.20;100.00
63808;BME280;49961;43.970;22.868;2022-12-18T05:44:59;102874.22;;;5.27;100.00